SWA2YP KSAN-KPHX
Flight info
| Callsign | SWA2YP |
|---|---|
| Flight time | N/A |
| Altitude | 35000 |
| Route | ZZOOO4 HOGGZ HYDRR1 |
| Aircraft | B738/M-SDE2E3FGHIRWXY/LB1 |
Departure
| Time | 2026-05-06 13:45 |
|---|---|
| Airport | San Diego International Airport (KSAN) |
Arrival
| Time | N/A |
|---|---|
| Airport | Phoenix Sky Harbor International Airport (KPHX) |
| Time | Latitude | Longitude | Altitude | Speed | Heading |
|---|---|---|---|---|---|
| 2026-05-06 13:36 | 32.73264 | -117.19390 | 23 ft | 0 kts | 196° |
| 2026-05-06 13:37 | 32.73273 | -117.19387 | 25 ft | 2 kts | 181° |
| 2026-05-06 13:37 | 32.73290 | -117.19389 | 28 ft | 2 kts | 160° |
| 2026-05-06 13:37 | 32.73301 | -117.19396 | 28 ft | 2 kts | 129° |
| 2026-05-06 13:37 | 32.73308 | -117.19414 | 25 ft | 2 kts | 86° |
| 2026-05-06 13:38 | 32.73304 | -117.19430 | 30 ft | 1 kts | 51° |
| 2026-05-06 13:38 | 32.73301 | -117.19434 | 30 ft | 0 kts | 41° |
| 2026-05-06 13:41 | 32.73309 | -117.19427 | 25 ft | 3 kts | 34° |
| 2026-05-06 13:41 | 32.73341 | -117.19385 | 25 ft | 11 kts | 72° |
| 2026-05-06 13:41 | 32.73324 | -117.19257 | 22 ft | 20 kts | 108° |
| 2026-05-06 13:42 | 32.73282 | -117.19091 | 26 ft | 22 kts | 106° |
| 2026-05-06 13:42 | 32.73238 | -117.18912 | 26 ft | 23 kts | 106° |
| 2026-05-06 13:42 | 32.73195 | -117.18730 | 27 ft | 22 kts | 106° |
| 2026-05-06 13:42 | 32.73149 | -117.18545 | 24 ft | 25 kts | 107° |
| 2026-05-06 13:43 | 32.73100 | -117.18346 | 25 ft | 19 kts | 106° |
| 2026-05-06 13:43 | 32.73070 | -117.18222 | 24 ft | 16 kts | 105° |
| 2026-05-06 13:43 | 32.73065 | -117.18199 | 21 ft | 0 kts | 105° |
| 2026-05-06 13:44 | 32.73061 | -117.18173 | 21 ft | 6 kts | 97° |
| 2026-05-06 13:44 | 32.73085 | -117.18113 | 20 ft | 10 kts | 28° |
| 2026-05-06 13:44 | 32.73151 | -117.18141 | 21 ft | 11 kts | 298° |
| 2026-05-06 13:44 | 32.73176 | -117.18240 | 25 ft | 44 kts | 286° |
| 2026-05-06 13:45 | 32.73350 | -117.18986 | 29 ft | 139 kts | 286° |
| 2026-05-06 13:45 | 32.74094 | -117.21848 | 1584 ft | 195 kts | 288° |
| 2026-05-06 13:45 | 32.74482 | -117.23446 | 2586 ft | 206 kts | 286° |
| 2026-05-06 13:46 | 32.74862 | -117.25078 | 3607 ft | 209 kts | 287° |
| 2026-05-06 13:46 | 32.75283 | -117.26857 | 3898 ft | 236 kts | 288° |
| 2026-05-06 13:46 | 32.75736 | -117.28756 | 4506 ft | 245 kts | 288° |
| 2026-05-06 13:46 | 32.76212 | -117.30745 | 5215 ft | 256 kts | 288° |
| 2026-05-06 13:47 | 32.76534 | -117.32871 | 5862 ft | 272 kts | 269° |
| 2026-05-06 13:47 | 32.76035 | -117.35043 | 6667 ft | 282 kts | 241° |
| 2026-05-06 13:47 | 32.75239 | -117.36279 | 7201 ft | 286 kts | 223° |
| 2026-05-06 13:47 | 32.72845 | -117.37678 | 8280 ft | 293 kts | 186° |
| 2026-05-06 13:48 | 32.71500 | -117.37677 | 8815 ft | 294 kts | 167° |
| 2026-05-06 13:48 | 32.69143 | -117.36244 | 9924 ft | 289 kts | 129° |
| 2026-05-06 13:48 | 32.68097 | -117.34236 | 10736 ft | 286 kts | 110° |
| 2026-05-06 13:48 | 32.67529 | -117.32812 | 11251 ft | 290 kts | 113° |
| 2026-05-06 13:49 | 32.66529 | -117.30684 | 12010 ft | 297 kts | 117° |
| 2026-05-06 13:49 | 32.65413 | -117.28588 | 12806 ft | 302 kts | 119° |
| 2026-05-06 13:49 | 32.64256 | -117.26522 | 13619 ft | 306 kts | 120° |
| 2026-05-06 13:49 | 32.63360 | -117.24234 | 14335 ft | 304 kts | 99° |
| 2026-05-06 13:50 | 32.63235 | -117.21756 | 15101 ft | 299 kts | 84° |
| 2026-05-06 13:50 | 32.63355 | -117.19302 | 15866 ft | 301 kts | 82° |
| 2026-05-06 13:50 | 32.63512 | -117.16803 | 16606 ft | 304 kts | 81° |
| 2026-05-06 13:50 | 32.63677 | -117.14281 | 17386 ft | 306 kts | 81° |
| 2026-05-06 13:51 | 32.63839 | -117.11768 | 18135 ft | 309 kts | 81° |
| 2026-05-06 13:51 | 32.63998 | -117.09204 | 18837 ft | 311 kts | 81° |
| 2026-05-06 13:51 | 32.64152 | -117.06655 | 19517 ft | 312 kts | 81° |
| 2026-05-06 13:51 | 32.64305 | -117.04066 | 20213 ft | 313 kts | 81° |
| 2026-05-06 13:52 | 32.64453 | -117.01506 | 20887 ft | 315 kts | 81° |
| 2026-05-06 13:52 | 32.64602 | -116.98895 | 21561 ft | 316 kts | 81° |
| 2026-05-06 13:52 | 32.64750 | -116.96274 | 22223 ft | 318 kts | 81° |
| 2026-05-06 13:52 | 32.64896 | -116.93669 | 22888 ft | 320 kts | 81° |
| 2026-05-06 13:53 | 32.65043 | -116.91025 | 23539 ft | 322 kts | 81° |
| 2026-05-06 13:53 | 32.65190 | -116.88355 | 24111 ft | 324 kts | 81° |
| 2026-05-06 13:53 | 32.65338 | -116.85677 | 24643 ft | 326 kts | 81° |
| 2026-05-06 13:53 | 32.65486 | -116.82981 | 25157 ft | 328 kts | 81° |
| 2026-05-06 13:54 | 32.65634 | -116.80267 | 25670 ft | 331 kts | 81° |
| 2026-05-06 13:54 | 32.65781 | -116.77567 | 26152 ft | 333 kts | 81° |
| 2026-05-06 13:54 | 32.65929 | -116.74811 | 26663 ft | 334 kts | 81° |
| 2026-05-06 13:54 | 32.66076 | -116.72050 | 27272 ft | 333 kts | 81° |
| 2026-05-06 13:55 | 32.66220 | -116.69340 | 27899 ft | 331 kts | 81° |
| 2026-05-06 13:55 | 32.66364 | -116.66614 | 28504 ft | 329 kts | 81° |
| 2026-05-06 13:55 | 32.66507 | -116.63905 | 29083 ft | 328 kts | 81° |
| 2026-05-06 13:55 | 32.66652 | -116.61183 | 29450 ft | 334 kts | 81° |
| 2026-05-06 13:56 | 32.66802 | -116.58423 | 29561 ft | 345 kts | 81° |
| 2026-05-06 13:56 | 32.66958 | -116.55529 | 29778 ft | 354 kts | 81° |
| 2026-05-06 13:56 | 32.67113 | -116.52596 | 30044 ft | 360 kts | 81° |
| 2026-05-06 13:56 | 32.67268 | -116.49610 | 30419 ft | 362 kts | 82° |
| 2026-05-06 13:57 | 32.67422 | -116.46600 | 30808 ft | 363 kts | 82° |